Time;durP1;ratioP1;P1;durP2;ratioP2;P2;SDS_P1;SDS_P2;PMS_P1;PMS_P2;Temp;Humidity;BMP_temperature;BMP_pressure;BME280_temperature;BME280_humidity;BME280_pressure;Samples;Min_cycle;Max_cycle;Signal;HPM_P1;HPM_P2
2022/06/12 00:01:08;;;;;;;10.73;4.32;;;;;;;11.21;100.00;163494.69;5069938;28;20498;-60
2022/06/12 00:03:34;;;;;;;15.25;5.47;;;;;;;11.13;100.00;163473.13;5071584;28;20027;-60
2022/06/12 00:06:02;;;;;;;13.57;6.18;;;;;;;11.09;100.00;163463.66;5069327;28;20040;-60
2022/06/12 00:08:30;;;;;;;18.08;7.10;;;;;;;11.06;100.00;163456.88;5071317;28;20032;-60
2022/06/12 00:10:57;;;;;;;6.78;5.20;;;;;;;11.03;100.00;163448.81;5069644;28;20044;-60
2022/06/12 00:13:28;;;;;;;12.00;5.13;;;;;;;11.05;100.00;163454.22;5071127;28;20445;-60
2022/06/12 00:15:54;;;;;;;15.60;5.53;;;;;;;10.99;100.00;163437.97;5069479;28;20052;-60
2022/06/12 00:18:20;;;;;;;8.45;5.60;;;;;;;10.93;100.00;163421.78;5071046;28;20016;-60
2022/06/12 00:20:46;;;;;;;20.17;5.90;;;;;;;10.88;100.00;163408.28;5069327;28;20124;-60
2022/06/12 00:23:13;;;;;;;10.30;5.80;;;;;;;10.85;100.00;163401.56;5070639;28;20032;-60
2022/06/12 00:25:39;;;;;;;12.85;5.55;;;;;;;10.82;100.00;163393.44;5069109;28;20068;-60
2022/06/12 00:28:05;;;;;;;8.55;6.60;;;;;;;10.71;100.00;163365.09;5070488;28;20443;-60
2022/06/12 00:30:31;;;;;;;15.13;6.07;;;;;;;10.65;100.00;163348.91;5069754;28;20041;-60
2022/06/12 00:32:57;;;;;;;10.82;6.35;;;;;;;10.61;100.00;163338.13;5070362;28;20098;-60
2022/06/12 00:35:27;;;;;;;15.43;6.13;;;;;;;10.58;100.00;163330.00;5069107;28;20059;-59
2022/06/12 00:37:53;;;;;;;13.38;6.68;;;;;;;10.57;100.00;163327.28;5070623;28;20055;-59
2022/06/12 00:40:20;;;;;;;13.70;5.93;;;;;;;10.51;100.00;163311.09;5069216;28;20067;-60
2022/06/12 00:42:54;;;;;;;8.35;6.13;;;;;;;10.44;100.00;163294.91;5070168;28;20033;-60
2022/06/12 00:45:55;;;;;;;14.20;6.10;;;;;;;10.39;100.00;163281.38;5069423;28;20067;-60
2022/06/12 00:48:35;;;;;;;11.98;5.55;;;;;;;10.35;100.00;163270.56;5070630;28;20298;-60
2022/06/12 00:51:19;;;;;;;9.50;4.68;;;;;;;10.25;100.00;163244.94;5068816;28;20067;-60
2022/06/12 00:53:57;;;;;;;18.13;7.57;;;;;;;10.20;100.00;163230.06;5070568;28;20028;-59
2022/06/12 00:56:27;;;;;;;10.68;7.18;;;;;;;10.15;100.00;163219.28;5069069;28;20131;-59
2022/06/12 00:58:56;;;;;;;18.77;6.95;;;;;;;10.11;100.00;163207.16;5070326;28;20494;-59
2022/06/12 01:01:27;;;;;;;12.15;6.82;;;;;;;10.06;100.00;163195.00;5068889;28;20530;-59
2022/06/12 01:06:37;;;;;;;11.50;5.95;;;;;;;9.94;100.00;163163.97;5069058;28;20043;-60
2022/06/12 01:09:13;;;;;;;13.38;5.93;;;;;;;9.89;100.00;163149.09;5070196;28;20037;-60
2022/06/12 01:11:42;;;;;;;18.23;8.30;;;;;;;9.82;100.00;163132.94;5068455;28;20040;-60
2022/06/12 01:14:10;;;;;;;13.43;6.43;;;;;;;9.80;100.00;163127.50;5070201;28;20451;-60
2022/06/12 01:16:42;;;;;;;9.60;7.07;;;;;;;9.79;100.00;163124.81;5069016;28;20438;-60
2022/06/12 01:19:15;;;;;;;12.52;6.43;;;;;;;9.78;100.00;163122.16;5070064;28;20108;-60
2022/06/12 01:21:59;;;;;;;14.57;7.90;;;;;;;9.73;100.00;163107.31;5068982;28;20047;-59
2022/06/12 01:24:50;;;;;;;12.25;6.68;;;;;;;9.69;100.00;163097.84;5070146;28;20056;-59
2022/06/12 01:27:28;;;;;;;11.45;5.53;;;;;;;9.61;100.00;163077.59;5067796;28;20082;-60
2022/06/12 01:30:06;;;;;;;17.30;7.85;;;;;;;9.56;100.00;163064.13;5068429;28;20028;-60
2022/06/12 01:32:51;;;;;;;12.02;7.13;;;;;;;9.50;100.00;163049.28;5070232;28;20090;-60
2022/06/12 01:35:22;;;;;;;18.52;8.27;;;;;;;9.47;100.00;163041.22;5070743;28;20032;-59
2022/06/12 01:38:11;;;;;;;11.02;7.07;;;;;;;9.42;100.00;163027.69;5074467;28;20052;-60
2022/06/12 01:40:58;;;;;;;28.40;8.88;;;;;;;9.38;100.00;163016.91;5072755;28;20040;-59
2022/06/12 01:43:50;;;;;;;10.38;8.15;;;;;;;9.36;100.00;163011.50;5073969;28;20024;-57
2022/06/12 01:46:45;;;;;;;20.95;9.80;;;;;;;9.33;100.00;163003.44;5072561;28;20435;-60
2022/06/12 01:49:24;;;;;;;20.50;9.38;;;;;;;9.28;100.00;162989.91;5073715;28;20457;-60
2022/06/12 01:52:04;;;;;;;20.25;10.18;;;;;;;9.24;100.00;162979.16;5072477;28;20491;-59
2022/06/12 01:54:32;;;;;;;9.60;7.40;;;;;;;9.16;100.00;162960.28;5073874;28;20039;-60
2022/06/12 01:57:29;;;;;;;9.65;7.97;;;;;;;9.11;100.00;162946.81;5071819;28;20480;-59
2022/06/12 01:59:58;;;;;;;14.60;9.20;;;;;;;9.07;100.00;162936.00;5072058;28;20055;-59
2022/06/12 02:02:39;;;;;;;14.82;9.48;;;;;;;9.05;100.00;162931.97;5074057;28;20104;-60
2022/06/12 02:05:22;;;;;;;19.55;9.68;;;;;;;9.05;100.00;162931.97;5071667;28;20043;-59
2022/06/12 02:08:28;;;;;;;14.88;9.20;;;;;;;9.04;100.00;162927.94;5073726;28;20082;-60
2022/06/12 02:13:11;;;;;;;13.40;8.48;;;;;;;8.99;100.00;162914.41;5049010;28;20044;-60
2022/06/12 02:13:53;;;;;;;15.15;8.95;;;;;;;8.98;100.00;162911.72;5050379;28;20033;-59
2022/06/12 02:16:22;;;;;;;16.00;9.27;;;;;;;8.97;100.00;162910.38;5065148;28;20135;-59
2022/06/12 02:18:52;;;;;;;18.75;9.85;;;;;;;8.97;100.00;162909.06;5072761;28;20044;-60
2022/06/12 02:21:25;;;;;;;15.18;10.13;;;;;;;8.95;100.00;162903.66;5072118;28;20086;-59
2022/06/12 02:24:00;;;;;;;18.85;11.52;;;;;;;8.95;100.00;162903.66;5072674;28;20135;-59
2022/06/12 02:26:35;;;;;;;7.88;7.28;;;;;;;8.93;100.00;162899.63;5068037;28;20048;-59
2022/06/12 02:29:04;;;;;;;8.93;6.57;;;;;;;8.86;100.00;162882.06;5064203;28;20025;-59
2022/06/12 02:31:36;;;;;;;14.02;7.63;;;;;;;8.75;100.00;162852.38;5060363;28;20044;-59
2022/06/12 02:34:06;;;;;;;13.77;9.70;;;;;;;8.73;100.00;162847.03;5064033;28;20024;-59
2022/06/12 02:36:39;;;;;;;15.55;10.35;;;;;;;8.78;100.00;162859.16;5062298;28;20044;-59
2022/06/12 02:39:14;;;;;;;18.45;11.73;;;;;;;8.80;100.00;162865.91;5063100;28;20793;-59
2022/06/12 02:41:48;;;;;;;20.50;13.50;;;;;;;8.84;100.00;162876.66;5058579;28;20546;-59
2022/06/12 02:44:23;;;;;;;16.38;10.93;;;;;;;8.86;100.00;162882.06;5073039;28;20040;-59
2022/06/12 02:46:55;;;;;;;11.35;9.20;;;;;;;8.83;100.00;162873.94;5070856;28;20040;-59
2022/06/12 02:49:21;;;;;;;16.77;11.52;;;;;;;8.80;100.00;162865.91;5072795;28;20035;-59
2022/06/12 02:52:19;;;;;;;13.30;10.43;;;;;;;8.77;100.00;162857.78;5071246;28;20033;-59
2022/06/12 02:54:45;;;;;;;12.88;9.90;;;;;;;8.73;100.00;162848.34;5043786;28;20055;-59
2022/06/12 02:57:13;;;;;;;15.65;10.75;;;;;;;8.72;100.00;162844.31;5051388;28;20119;-59
2022/06/12 03:00:04;;;;;;;18.17;12.30;;;;;;;8.69;100.00;162837.59;5060052;28;20375;-59
2022/06/12 03:02:39;;;;;;;15.98;10.13;;;;;;;8.65;100.00;162826.78;5042318;28;20055;-59
2022/06/12 03:05:21;;;;;;;15.55;10.43;;;;;;;8.61;100.00;162814.63;5050874;28;20557;-59
2022/06/12 03:07:49;;;;;;;13.57;10.70;;;;;;;8.55;100.00;162801.16;5052592;28;20036;-59
2022/06/12 03:10:20;;;;;;;17.75;10.07;;;;;;;8.57;100.00;162806.56;5050993;28;20187;-58
2022/06/12 03:12:46;;;;;;;16.95;9.80;;;;;;;8.56;100.00;162802.53;5052690;28;20025;-59
2022/06/12 03:15:39;;;;;;;17.90;11.52;;;;;;;8.57;100.00;162806.56;5051018;28;20404;-59
2022/06/12 03:18:08;;;;;;;11.18;8.80;;;;;;;8.59;100.00;162810.59;5057959;28;20286;-59
2022/06/12 03:20:44;;;;;;;23.67;11.30;;;;;;;8.60;100.00;162811.97;5071142;28;20044;-59
2022/06/12 03:23:30;;;;;;;15.98;11.15;;;;;;;8.62;100.00;162818.72;5072520;28;20085;-59
2022/06/12 03:25:59;;;;;;;16.23;10.70;;;;;;;8.64;100.00;162822.75;5069948;28;20048;-60
2022/06/12 03:28:56;;;;;;;20.30;12.02;;;;;;;8.67;100.00;162830.84;5072436;28;20035;-60
2022/06/12 03:31:34;;;;;;;19.33;10.63;;;;;;;8.69;100.00;162837.59;5048155;28;20041;-59
2022/06/12 03:34:08;;;;;;;14.90;11.07;;;;;;;8.73;100.00;162847.03;5063894;28;20099;-59
2022/06/12 03:36:47;;;;;;;14.07;10.90;;;;;;;8.72;100.00;162844.31;5070410;28;20048;-59
2022/06/12 03:39:18;;;;;;;10.25;9.23;;;;;;;8.76;100.00;162855.09;5071793;28;20476;-59
2022/06/12 03:41:55;;;;;;;12.43;9.15;;;;;;;8.76;100.00;162855.09;5070185;28;20148;-59
2022/06/12 03:44:41;;;;;;;16.42;11.98;;;;;;;8.72;100.00;162844.31;5071887;28;20078;-59
2022/06/12 03:47:29;;;;;;;15.98;10.68;;;;;;;8.67;100.00;162830.84;5069819;28;20044;-59
2022/06/12 03:50:24;;;;;;;16.38;11.40;;;;;;;8.66;100.00;162828.16;5070226;28;20032;-58
2022/06/12 03:53:10;;;;;;;15.48;12.52;;;;;;;8.66;100.00;162829.47;5069334;28;20047;-59
2022/06/12 03:58:31;;;;;;;20.77;13.35;;;;;;;8.65;100.00;162825.44;5070736;28;20196;-59
2022/06/12 04:00:59;;;;;;;18.70;13.25;;;;;;;8.67;100.00;162830.84;5070038;28;20036;-59
2022/06/12 04:03:30;;;;;;;18.42;11.95;;;;;;;8.66;100.00;162828.16;5071002;28;20032;-59
2022/06/12 04:06:03;;;;;;;17.17;12.02;;;;;;;8.71;100.00;162841.63;5069815;28;20036;-59
2022/06/12 04:08:42;;;;;;;17.55;9.90;;;;;;;8.78;100.00;162860.50;5071118;28;20031;-59
2022/06/12 04:11:10;;;;;;;21.45;12.90;;;;;;;8.86;100.00;162880.75;5069782;28;20048;-59
2022/06/12 04:13:37;;;;;;;18.08;8.27;;;;;;;8.91;100.00;162894.22;5071050;28;20024;-59
2022/06/12 04:16:12;;;;;;;22.42;12.15;;;;;;;8.92;100.00;162895.53;5069347;28;20063;-59
2022/06/12 04:18:37;;;;;;;17.00;10.57;;;;;;;9.01;100.00;162921.16;5071542;28;20028;-59
2022/06/12 04:21:10;;;;;;;12.38;9.98;;;;;;;9.09;100.00;162941.41;5069299;28;20040;-59
2022/06/12 04:23:56;;;;;;;11.73;10.15;;;;;;;9.22;100.00;162975.13;5068616;28;20040;-59
2022/06/12 04:26:35;;;;;;;13.93;11.80;;;;;;;9.34;100.00;163006.16;5060547;28;20111;-59
2022/06/12 04:29:18;;;;;;;17.35;12.77;;;;;;;9.44;100.00;163031.75;5068951;28;20028;-58
2022/06/12 04:31:47;;;;;;;31.77;14.73;;;;;;;9.60;100.00;163074.94;5067476;28;20040;-59
2022/06/12 04:34:31;;;;;;;;;;;;;;;9.79;100.00;163124.81;5070329;28;20020;-59
2022/06/12 04:37:00;;;;;;;17.17;12.00;;;;;;;10.02;100.00;163184.19;5069214;28;19913;-59
2022/06/12 04:39:31;;;;;;;12.27;9.13;;;;;;;10.23;100.00;163239.53;5070526;28;20024;-59
2022/06/12 04:41:57;;;;;;;24.45;8.45;;;;;;;10.47;100.00;163303.00;5069365;28;20033;-59
2022/06/12 04:44:23;;;;;;;17.48;7.90;;;;;;;10.70;100.00;163362.38;5071151;28;20028;-59
2022/06/12 04:46:52;;;;;;;16.52;7.97;;;;;;;10.93;100.00;163421.78;5068139;28;20036;-59
2022/06/12 04:49:23;;;;;;;12.55;7.53;;;;;;;11.14;100.00;163475.78;5070972;28;20108;-59
2022/06/12 04:51:49;;;;;;;12.73;6.30;;;;;;;11.33;100.00;163525.75;5068878;28;20040;-59
2022/06/12 04:54:15;;;;;;;18.58;8.13;;;;;;;11.50;100.00;163570.34;5070252;28;20028;-59
2022/06/12 04:56:41;;;;;;;15.35;7.40;;;;;;;11.68;100.00;163618.94;5069131;28;20411;-59
2022/06/12 04:59:08;;;;;;;16.70;6.35;;;;;;;11.82;100.00;163655.44;5070412;28;20016;-60
2022/06/12 05:01:33;;;;;;;15.63;8.55;;;;;;;12.00;100.00;163701.38;5068589;28;20070;-60
2022/06/12 05:04:03;;;;;;;17.42;6.85;;;;;;;12.18;100.00;163748.66;5070191;28;20056;-60
2022/06/12 05:06:29;;;;;;;25.85;8.85;;;;;;;12.36;100.00;163797.34;5069159;28;20518;-60
2022/06/12 05:08:55;;;;;;;11.63;6.75;;;;;;;12.53;100.00;163840.59;5069723;28;20107;-60
2022/06/12 05:11:21;;;;;;;13.57;6.20;;;;;;;12.70;100.00;163886.50;5069342;28;20072;-59
2022/06/12 05:13:47;;;;;;;12.43;5.93;;;;;;;12.86;100.00;163927.06;5070015;28;20475;-60
2022/06/12 05:16:27;;;;;;;14.18;6.43;;;;;;;13.03;100.00;163971.66;5068556;28;20041;-60
2022/06/12 05:18:52;;;;;;;13.85;5.25;;;;;;;13.21;100.00;164017.63;5070381;28;20397;-60
2022/06/12 05:21:18;;;;;;;16.95;6.78;;;;;;;13.31;100.00;164046.03;5068784;28;20051;-59
2022/06/12 05:23:43;;;;;;;18.13;6.55;;;;;;;13.42;100.00;164073.13;5070044;28;20035;-59
2022/06/12 05:26:13;;;;;;;21.63;6.90;;;;;;;13.56;100.00;164111.00;5068376;28;20102;-59
2022/06/12 05:28:39;;;;;;;26.20;6.38;;;;;;;13.67;100.00;164139.41;5070365;28;20628;-58
2022/06/12 05:31:04;;;;;;;16.92;5.50;;;;;;;13.76;100.00;164162.38;5068387;28;20044;-59
2022/06/12 05:33:30;;;;;;;27.55;7.03;;;;;;;13.88;100.00;164193.47;5070257;28;20031;-59
2022/06/12 05:35:55;;;;;;;13.93;5.00;;;;;;;14.01;100.00;164227.31;5068195;28;20511;-59
2022/06/12 05:38:20;;;;;;;14.88;5.55;;;;;;;14.15;100.00;164265.19;5069979;28;20032;-59
2022/06/12 05:40:46;;;;;;;13.38;5.65;;;;;;;14.17;100.00;164269.22;5068441;28;20048;-59
2022/06/12 05:43:11;;;;;;;20.20;6.95;;;;;;;14.30;100.00;164304.38;5070127;28;20028;-59
2022/06/12 05:45:37;;;;;;;15.32;6.57;;;;;;;14.42;100.00;164335.50;5068291;28;20041;-59
2022/06/12 05:48:15;;;;;;;29.73;8.18;;;;;;;14.47;100.00;164349.06;5069955;28;20095;-59
2022/06/12 05:50:50;;;;;;;15.80;5.32;;;;;;;14.54;100.00;164368.00;5068443;28;20043;-58
2022/06/12 05:53:16;;;;;;;18.00;7.40;;;;;;;14.57;100.00;164374.78;5069835;28;20534;-58
2022/06/12 05:55:42;;;;;;;16.63;5.20;;;;;;;14.60;100.00;164384.25;5068751;28;20087;-59
2022/06/12 05:58:07;;;;;;;18.33;4.90;;;;;;;14.57;100.00;164376.09;5069673;28;20035;-57
2022/06/12 06:00:33;;;;;;;18.98;5.95;;;;;;;14.79;100.00;164432.97;5067620;28;20052;-58
2022/06/12 06:02:59;;;;;;;19.17;6.65;;;;;;;14.95;100.00;164473.56;5069212;28;20039;-57
2022/06/12 06:05:25;;;;;;;23.15;8.15;;;;;;;15.04;100.00;164497.94;5067776;28;20041;-58
2022/06/12 06:07:50;;;;;;;14.15;4.85;;;;;;;15.13;100.00;164520.94;5069269;28;20039;-58
2022/06/12 06:10:20;;;;;;;17.92;7.10;;;;;;;15.28;100.00;164560.22;5068671;28;20394;-58
2022/06/12 06:12:45;;;;;;;22.95;5.13;;;;;;;15.48;100.00;164614.34;5065596;28;20109;-58
2022/06/12 06:15:11;;;;;;;14.20;7.10;;;;;;;15.59;100.00;164641.47;5050254;28;20048;-58
2022/06/12 06:17:37;;;;;;;21.80;7.55;;;;;;;15.69;100.00;164668.50;5069896;28;20474;-58
2022/06/12 06:20:04;;;;;;;14.65;7.15;;;;;;;15.81;100.00;164701.03;5068167;28;20024;-58
2022/06/12 06:22:29;;;;;;;11.25;5.78;;;;;;;16.00;100.00;164749.81;5072947;28;20070;-58
2022/06/12 06:24:54;;;;;;;16.75;5.70;;;;;;;16.04;100.00;164760.66;5070913;28;20048;-58
2022/06/12 06:27:20;;;;;;;23.35;7.55;;;;;;;16.17;100.00;164795.88;5073105;28;20024;-58
2022/06/12 06:29:45;;;;;;;17.00;6.13;;;;;;;16.31;100.00;164831.06;5072589;28;20047;-58
2022/06/12 06:32:11;;;;;;;24.63;8.23;;;;;;;16.57;100.00;164898.81;5071519;28;20052;-58
2022/06/12 06:34:38;;;;;;;15.68;6.35;;;;;;;17.00;100.00;165012.66;5072707;28;20025;-58
2022/06/12 06:37:06;;;;;;;17.90;5.38;;;;;;;17.28;100.00;165085.81;5070957;28;20507;-57
2022/06/12 06:39:32;;;;;;;17.83;6.55;;;;;;;17.31;100.00;165092.59;5072118;28;20024;-58
2022/06/12 06:41:57;;;;;;;18.02;7.28;;;;;;;17.46;100.00;165133.25;5071276;28;20040;-58
2022/06/12 06:47:07;;;;;;;19.27;7.82;;;;;;;17.67;100.00;165188.84;5067953;28;20070;-58
2022/06/12 06:49:33;;;;;;;17.42;5.28;;;;;;;17.65;100.00;165182.06;5067750;28;20028;-58
2022/06/12 06:51:58;;;;;;;22.58;5.85;;;;;;;17.76;100.00;165213.19;5056374;28;20470;-58
2022/06/12 06:54:24;;;;;;;17.52;6.13;;;;;;;17.81;100.00;165224.06;5072535;28;20032;-58
2022/06/12 06:56:49;;;;;;;22.42;5.45;;;;;;;17.62;100.00;165173.91;5071158;28;20048;-58
2022/06/12 06:59:15;;;;;;;18.15;7.20;;;;;;;17.66;100.00;165186.13;5072425;28;20037;-58
2022/06/12 07:01:40;;;;;;;18.83;6.75;;;;;;;18.06;100.00;165290.53;5066416;28;20049;-58
2022/06/12 07:04:06;;;;;;;17.00;6.97;;;;;;;18.16;100.00;165317.69;5052580;28;20025;-58
2022/06/12 07:06:31;;;;;;;17.92;5.50;;;;;;;18.06;100.00;165291.88;5064624;28;20545;-58
2022/06/12 07:08:57;;;;;;;19.45;5.18;;;;;;;18.17;100.00;165319.00;5072377;28;20102;-58
2022/06/12 07:11:23;;;;;;;18.13;7.65;;;;;;;18.06;100.00;165291.88;5069518;28;20971;-58
2022/06/12 07:13:49;;;;;;;16.85;5.60;;;;;;;18.23;100.00;165335.28;5069598;28;20432;-58
2022/06/12 07:16:15;;;;;;;28.80;6.90;;;;;;;18.32;100.00;165358.31;5070047;28;20063;-58
2022/06/12 07:18:41;;;;;;;18.70;5.82;;;;;;;18.37;100.00;165373.22;5071892;28;20032;-58
2022/06/12 07:21:06;;;;;;;28.00;6.72;;;;;;;18.51;100.00;165409.88;5068000;28;20132;-58
2022/06/12 07:23:32;;;;;;;15.55;6.05;;;;;;;18.54;100.00;165416.63;5061182;28;20036;-58
2022/06/12 07:26:04;;;;;;;22.33;7.18;;;;;;;18.70;100.00;165460.03;5061180;28;20135;-58
2022/06/12 07:28:31;;;;;;;15.98;6.65;;;;;;;19.11;100.00;165565.84;5062424;28;20037;-58
2022/06/12 07:30:57;;;;;;;17.40;6.32;;;;;;;19.29;100.00;165614.72;5067405;28;20041;-59
2022/06/12 07:33:23;;;;;;;15.43;5.70;;;;;;;19.22;100.00;165595.72;5069245;28;20024;-58
2022/06/12 07:35:49;;;;;;;27.75;7.15;;;;;;;19.21;100.00;165591.69;5064278;28;20041;-58
2022/06/12 07:38:18;;;;;;;15.50;5.47;;;;;;;19.43;100.00;165649.97;5060487;28;20388;-58
2022/06/12 07:40:48;;;;;;;23.85;7.35;;;;;;;19.69;100.00;165719.19;5061823;28;20598;-59
2022/06/12 07:43:13;;;;;;;16.67;6.28;;;;;;;19.71;100.00;165723.25;5049807;28;20484;-58
2022/06/12 07:45:41;;;;;;;12.07;5.32;;;;;;;19.73;100.00;165730.03;5056411;28;20052;-59
2022/06/12 07:48:07;;;;;;;20.90;7.00;;;;;;;19.72;100.00;165725.97;5070613;28;20063;-58
2022/06/12 07:50:33;;;;;;;20.00;6.25;;;;;;;19.71;100.00;165724.63;5066782;28;20047;-59
2022/06/12 07:52:59;;;;;;;26.88;6.47;;;;;;;19.54;100.00;165679.84;5067764;28;20028;-58
2022/06/12 07:55:25;;;;;;;19.58;5.90;;;;;;;19.51;100.00;165671.69;5067604;28;20184;-59
2022/06/12 07:57:50;;;;;;;16.58;6.55;;;;;;;19.37;100.00;165633.72;5069098;28;20455;-59
2022/06/12 08:00:16;;;;;;;22.33;6.03;;;;;;;19.28;100.00;165612.00;5068795;28;20048;-58
2022/06/12 08:02:43;;;;;;;19.88;5.63;;;;;;;19.59;100.00;165693.41;5056754;28;20083;-59
2022/06/12 08:05:09;;;;;;;19.90;5.40;;;;;;;19.97;100.00;165793.88;5059554;28;20037;-59
2022/06/12 08:07:34;;;;;;;14.95;5.85;;;;;;;20.25;100.00;165867.16;5070369;28;20130;-58
2022/06/12 08:10:00;;;;;;;22.80;6.43;;;;;;;20.59;100.00;165955.41;5069250;28;20471;-58
2022/06/12 08:12:26;;;;;;;17.05;7.32;;;;;;;21.02;100.00;166069.50;5069853;28;20107;-59
2022/06/12 08:14:53;;;;;;;23.73;7.68;;;;;;;21.42;100.00;166174.03;5068876;28;20582;-57
2022/06/12 08:17:19;;;;;;;16.38;6.28;;;;;;;21.67;100.00;166239.31;5070826;28;20036;-59
2022/06/12 08:22:28;;;;;;;22.98;7.20;;;;;;;21.66;100.00;166236.59;5068474;28;20470;-59
2022/06/12 08:24:53;;;;;;;21.98;6.15;;;;;;;21.53;100.00;166202.56;5068487;28;20052;-58
2022/06/12 08:27:19;;;;;;;21.88;6.43;;;;;;;21.43;100.00;166176.78;5069490;28;20016;-59
2022/06/12 08:29:44;;;;;;;15.65;4.75;;;;;;;21.73;100.00;166255.59;5069822;28;20044;-59
2022/06/12 08:32:16;;;;;;;19.33;5.13;;;;;;;21.12;100.00;166095.28;5068887;28;20039;-59
2022/06/12 08:34:49;;;;;;;31.85;7.60;;;;;;;21.33;100.00;166150.97;5069759;28;20030;-59
2022/06/12 08:37:21;;;;;;;22.02;6.63;;;;;;;21.23;100.00;166125.19;5067670;28;20143;-59
2022/06/12 08:39:47;;;;;;;17.65;6.00;;;;;;;21.19;100.00;166114.28;5070286;28;20017;-60
2022/06/12 08:42:16;;;;;;;17.48;6.88;;;;;;;21.23;100.00;166125.19;5067609;28;20040;-59
2022/06/12 08:44:47;;;;;;;;;;;;;;;21.27;100.00;166133.31;5070481;28;20031;-59
2022/06/12 08:47:37;;;;;;;16.35;5.38;;;;;;;21.29;100.00;166138.75;5068278;28;19920;-59
2022/06/12 08:50:13;;;;;;;16.58;4.80;;;;;;;21.26;100.00;166131.97;5065216;28;20028;-59
2022/06/12 08:52:51;;;;;;;17.45;4.93;;;;;;;21.32;100.00;166146.91;5063549;28;20088;-59
2022/06/12 08:55:39;;;;;;;21.50;5.55;;;;;;;21.35;100.00;166156.41;5066441;28;20040;-59
2022/06/12 08:58:09;;;;;;;12.15;4.55;;;;;;;21.70;100.00;166247.47;5069260;28;20115;-59
2022/06/12 09:00:37;;;;;;;12.93;4.35;;;;;;;21.99;100.00;166324.88;5068847;28;20032;-59
2022/06/12 09:03:03;;;;;;;;;;;;;;;22.38;100.00;166426.75;5070269;28;20044;-59
2022/06/12 09:05:40;;;;;;;11.07;5.45;;;;;;;22.36;100.00;166421.38;5067565;28;19924;-59
2022/06/12 09:08:32;;;;;;;18.65;5.18;;;;;;;22.28;100.00;166399.63;5069410;28;20475;-59
2022/06/12 09:11:21;;;;;;;11.95;3.83;;;;;;;22.32;100.00;166410.47;5056554;28;20408;-59
2022/06/12 09:14:24;;;;;;;20.88;6.47;;;;;;;22.80;100.00;166538.28;5069044;28;20029;-59
2022/06/12 09:16:57;;;;;;;18.48;6.57;;;;;;;22.79;100.00;166535.56;5066537;28;20049;-59
2022/06/12 09:19:48;;;;;;;19.55;5.15;;;;;;;22.80;100.00;166538.28;5069356;28;20021;-59
2022/06/12 09:22:20;;;;;;;14.55;5.45;;;;;;;22.44;100.00;166443.16;5067243;28;20048;-59
2022/06/12 09:25:06;;;;;;;15.32;5.05;;;;;;;22.60;100.00;166485.28;5069324;28;20067;-59
2022/06/12 09:27:48;;;;;;;14.25;4.38;;;;;;;22.61;100.00;166488.00;5067775;28;20055;-59
2022/06/12 09:30:25;;;;;;;21.50;6.82;;;;;;;22.72;100.00;166515.16;5065386;28;20040;-59
2022/06/12 09:33:12;;;;;;;13.07;4.45;;;;;;;23.24;100.00;166652.50;5068795;28;20071;-60
2022/06/12 09:35:59;;;;;;;10.15;3.90;;;;;;;23.45;100.00;166709.59;5067914;28;20048;-60
2022/06/12 09:38:50;;;;;;;11.32;4.25;;;;;;;23.66;100.00;166763.97;5069905;28;20033;-59
2022/06/12 09:41:36;;;;;;;14.43;4.75;;;;;;;23.66;100.00;166763.97;5045091;28;20060;-59
2022/06/12 09:44:20;;;;;;;9.00;3.47;;;;;;;23.36;100.00;166685.13;5066227;28;20040;-59
2022/06/12 09:47:08;;;;;;;11.73;3.70;;;;;;;22.93;100.00;166570.88;5061106;28;20060;-59
2022/06/12 09:49:57;;;;;;;10.48;4.25;;;;;;;22.70;100.00;166511.09;5068228;28;20035;-59
2022/06/12 09:52:39;;;;;;;7.25;2.67;;;;;;;22.63;100.00;166492.06;5064984;28;20552;-59
2022/06/12 09:55:25;;;;;;;13.32;2.47;;;;;;;22.46;100.00;166448.56;5067413;28;20051;-59
2022/06/12 09:58:08;;;;;;;10.38;3.88;;;;;;;21.90;100.00;166299.09;5072629;28;20452;-59
2022/06/12 10:00:42;;;;;;;14.10;3.42;;;;;;;21.93;100.00;166307.25;5071759;28;20503;-59
2022/06/12 10:03:17;;;;;;;18.50;4.60;;;;;;;22.56;100.00;166473.03;5073261;28;20013;-59
2022/06/12 10:05:48;;;;;;;11.23;2.38;;;;;;;22.73;100.00;166519.25;5071701;28;20059;-59
2022/06/12 10:08:20;;;;;;;10.25;2.38;;;;;;;22.69;100.00;166508.34;5073380;28;20331;-59
2022/06/12 10:11:04;;;;;;;14.48;2.97;;;;;;;22.98;100.00;166584.47;5068433;28;20037;-59
2022/06/12 10:13:35;;;;;;;11.40;2.70;;;;;;;23.28;100.00;166663.34;5073292;28;20380;-58
2022/06/12 10:16:10;;;;;;;6.70;2.50;;;;;;;23.23;100.00;166649.78;5071664;28;20047;-59
2022/06/12 10:18:44;;;;;;;3.60;2.20;;;;;;;23.33;97.86;166676.97;5073233;28;20381;-59
2022/06/12 10:21:13;;;;;;;9.30;2.63;;;;;;;23.32;100.00;166674.25;5070747;28;20437;-59
2022/06/12 10:23:39;;;;;;;11.73;3.13;;;;;;;23.11;100.00;166619.84;5071986;28;20036;-59
2022/06/12 10:26:17;;;;;;;12.93;3.38;;;;;;;23.05;100.00;166602.16;5070661;28;20048;-59
2022/06/12 10:28:42;;;;;;;;;;;;;;;23.19;100.00;166640.25;5072494;28;20071;-59
2022/06/12 10:31:10;;;;;;;9.30;2.90;;;;;;;23.41;100.00;166698.75;5071210;28;19944;-60
2022/06/12 10:33:41;;;;;;;11.63;4.68;;;;;;;23.02;100.00;166595.38;5072665;28;20032;-60
2022/06/12 10:36:27;;;;;;;10.07;4.20;;;;;;;23.25;100.00;166655.22;5071252;28;20139;-59
2022/06/12 10:39:17;;;;;;;14.38;4.07;;;;;;;23.34;100.00;166679.72;5072897;28;20092;-60
2022/06/12 10:41:57;;;;;;;6.28;2.05;;;;;;;23.28;100.00;166663.34;5071091;28;20547;-59
2022/06/12 10:44:39;;;;;;;11.00;3.70;;;;;;;23.45;100.00;166708.25;5072725;28;20028;-59
2022/06/12 10:47:27;;;;;;;7.60;2.65;;;;;;;23.24;100.00;166653.84;5070510;28;20047;-59
2022/06/12 10:50:12;;;;;;;8.23;2.15;;;;;;;23.24;100.00;166652.50;5070404;28;20025;-58
2022/06/12 10:52:37;;;;;;;11.63;4.47;;;;;;;22.57;100.00;166475.75;5072390;28;20094;-59
2022/06/12 10:55:11;;;;;;;11.85;3.45;;;;;;;22.95;100.00;166576.34;5070597;28;20507;-59
2022/06/12 10:57:51;;;;;;;10.65;3.47;;;;;;;23.06;100.00;166604.88;5072254;28;20107;-59
2022/06/12 11:00:20;;;;;;;9.35;3.42;;;;;;;23.29;100.00;166666.09;5071518;28;20032;-59
2022/06/12 11:02:57;;;;;;;7.05;3.50;;;;;;;23.29;100.00;166667.47;5072507;28;20025;-60
2022/06/12 11:05:32;;;;;;;13.13;3.42;;;;;;;23.30;100.00;166668.81;5070746;28;20062;-59
2022/06/12 11:08:20;;;;;;;11.13;3.70;;;;;;;23.48;100.00;166715.03;5071642;28;20491;-59
2022/06/12 11:11:12;;;;;;;10.68;3.60;;;;;;;23.88;100.00;166821.06;5050393;28;20143;-59
2022/06/12 11:14:10;;;;;;;8.48;3.17;;;;;;;23.77;100.00;166793.91;5040864;28;20032;-59
2022/06/12 11:16:46;;;;;;;8.68;3.97;;;;;;;23.98;100.00;166847.00;5069701;28;20040;-59
2022/06/12 11:19:33;;;;;;;6.90;2.75;;;;;;;23.68;100.00;166769.41;5071428;28;20159;-59
2022/06/12 11:22:20;;;;;;;18.10;3.50;;;;;;;23.55;100.00;166735.41;5050515;28;20053;-60
2022/06/12 11:25:21;;;;;;;9.45;3.90;;;;;;;23.50;100.00;166721.84;5066161;28;20047;-59
2022/06/12 11:28:12;;;;;;;12.45;3.30;;;;;;;22.76;100.00;166527.38;5050630;28;20049;-59
2022/06/12 11:30:52;;;;;;;12.57;3.78;;;;;;;22.96;100.00;166579.06;5056445;28;20071;-59
2022/06/12 11:33:55;;;;;;;10.43;2.85;;;;;;;23.24;100.00;166652.50;5051860;28;20423;-59
2022/06/12 11:36:27;;;;;;;8.98;3.28;;;;;;;23.57;100.00;166740.88;5050520;28;20040;-59
2022/06/12 11:39:00;;;;;;;8.48;2.67;;;;;;;23.83;100.00;166807.50;5051455;28;20025;-59
2022/06/12 11:41:50;;;;;;;10.05;2.88;;;;;;;23.66;100.00;166762.63;5049964;28;20128;-59
2022/06/12 11:44:33;;;;;;;7.75;3.08;;;;;;;23.64;100.00;166758.56;5061792;28;20134;-59
2022/06/12 11:47:40;;;;;;;11.85;2.50;;;;;;;23.59;100.00;166744.94;5065185;28;20118;-59
2022/06/12 11:50:34;;;;;;;8.40;3.60;;;;;;;23.68;100.00;166768.09;5049535;28;20044;-58
2022/06/12 11:53:30;;;;;;;8.80;2.83;;;;;;;23.42;100.00;166701.41;5024683;28;20091;-58